sensor_id;sensor_type;location;lat;lon;timestamp;P1;durP1;ratioP1;P2;durP2;ratioP2
71303;SDS011;59091;47.446;19.148;2022-07-10T00:01:47;1.20;;;1.10;;
71303;SDS011;59091;47.446;19.148;2022-07-10T00:04:13;1.27;;;1.17;;
71303;SDS011;59091;47.446;19.148;2022-07-10T00:06:38;1.90;;;0.90;;
71303;SDS011;59091;47.446;19.148;2022-07-10T00:09:06;0.80;;;0.80;;
71303;SDS011;59091;47.446;19.148;2022-07-10T00:11:32;1.23;;;1.10;;
71303;SDS011;59091;47.446;19.148;2022-07-10T00:13:57;3.25;;;0.95;;
71303;SDS011;59091;47.446;19.148;2022-07-10T00:16:23;4.82;;;0.90;;
71303;SDS011;59091;47.446;19.148;2022-07-10T00:18:49;1.38;;;1.00;;
71303;SDS011;59091;47.446;19.148;2022-07-10T00:21:15;2.72;;;1.38;;
71303;SDS011;59091;47.446;19.148;2022-07-10T00:23:41;1.20;;;1.10;;
71303;SDS011;59091;47.446;19.148;2022-07-10T00:26:07;2.03;;;1.00;;
71303;SDS011;59091;47.446;19.148;2022-07-10T00:28:32;4.60;;;0.93;;
71303;SDS011;59091;47.446;19.148;2022-07-10T00:30:58;3.30;;;0.90;;
71303;SDS011;59091;47.446;19.148;2022-07-10T00:33:23;0.95;;;0.90;;
71303;SDS011;59091;47.446;19.148;2022-07-10T00:35:48;1.02;;;0.93;;
71303;SDS011;59091;47.446;19.148;2022-07-10T00:38:14;1.05;;;0.95;;
71303;SDS011;59091;47.446;19.148;2022-07-10T00:40:39;1.30;;;1.20;;
71303;SDS011;59091;47.446;19.148;2022-07-10T00:43:07;2.72;;;1.02;;
71303;SDS011;59091;47.446;19.148;2022-07-10T00:45:34;1.15;;;1.10;;
71303;SDS011;59091;47.446;19.148;2022-07-10T00:48:00;1.40;;;1.30;;
71303;SDS011;59091;47.446;19.148;2022-07-10T00:50:25;1.05;;;1.05;;
71303;SDS011;59091;47.446;19.148;2022-07-10T00:52:51;1.00;;;1.00;;
71303;SDS011;59091;47.446;19.148;2022-07-10T00:55:16;1.15;;;1.10;;
71303;SDS011;59091;47.446;19.148;2022-07-10T00:57:42;2.38;;;1.20;;
71303;SDS011;59091;47.446;19.148;2022-07-10T01:00:08;2.75;;;1.20;;
71303;SDS011;59091;47.446;19.148;2022-07-10T01:02:37;1.20;;;1.10;;
71303;SDS011;59091;47.446;19.148;2022-07-10T01:05:08;0.98;;;0.98;;
71303;SDS011;59091;47.446;19.148;2022-07-10T01:07:34;1.52;;;0.98;;
71303;SDS011;59091;47.446;19.148;2022-07-10T01:09:59;1.17;;;1.08;;
71303;SDS011;59091;47.446;19.148;2022-07-10T01:12:27;1.10;;;1.00;;
71303;SDS011;59091;47.446;19.148;2022-07-10T01:14:53;1.20;;;1.10;;
71303;SDS011;59091;47.446;19.148;2022-07-10T01:17:19;1.23;;;1.00;;
71303;SDS011;59091;47.446;19.148;2022-07-10T01:19:45;1.33;;;1.15;;
71303;SDS011;59091;47.446;19.148;2022-07-10T01:22:10;2.72;;;1.10;;
71303;SDS011;59091;47.446;19.148;2022-07-10T01:24:36;0.95;;;0.95;;
71303;SDS011;59091;47.446;19.148;2022-07-10T01:27:01;2.30;;;1.60;;
71303;SDS011;59091;47.446;19.148;2022-07-10T01:29:27;1.45;;;1.00;;
71303;SDS011;59091;47.446;19.148;2022-07-10T01:31:54;1.20;;;1.10;;
71303;SDS011;59091;47.446;19.148;2022-07-10T01:34:20;1.42;;;1.30;;
71303;SDS011;59091;47.446;19.148;2022-07-10T01:36:45;1.13;;;1.00;;
71303;SDS011;59091;47.446;19.148;2022-07-10T01:39:11;1.00;;;1.00;;
71303;SDS011;59091;47.446;19.148;2022-07-10T01:41:37;1.80;;;0.90;;
71303;SDS011;59091;47.446;19.148;2022-07-10T01:44:02;1.05;;;1.02;;
71303;SDS011;59091;47.446;19.148;2022-07-10T01:46:28;1.10;;;1.00;;
71303;SDS011;59091;47.446;19.148;2022-07-10T01:48:54;1.83;;;1.10;;
71303;SDS011;59091;47.446;19.148;2022-07-10T01:51:20;1.15;;;1.10;;
71303;SDS011;59091;47.446;19.148;2022-07-10T01:53:46;1.00;;;1.00;;
71303;SDS011;59091;47.446;19.148;2022-07-10T01:56:12;3.70;;;1.20;;
71303;SDS011;59091;47.446;19.148;2022-07-10T01:58:38;3.78;;;1.30;;
71303;SDS011;59091;47.446;19.148;2022-07-10T02:01:04;1.40;;;1.30;;
71303;SDS011;59091;47.446;19.148;2022-07-10T02:03:30;8.27;;;1.30;;
71303;SDS011;59091;47.446;19.148;2022-07-10T02:06:14;14.27;;;1.42;;
71303;SDS011;59091;47.446;19.148;2022-07-10T02:08:40;6.30;;;1.30;;
71303;SDS011;59091;47.446;19.148;2022-07-10T02:11:05;8.20;;;1.70;;
71303;SDS011;59091;47.446;19.148;2022-07-10T02:13:31;12.68;;;2.30;;
71303;SDS011;59091;47.446;19.148;2022-07-10T02:15:57;21.33;;;2.97;;
71303;SDS011;59091;47.446;19.148;2022-07-10T02:18:22;14.50;;;1.65;;
71303;SDS011;59091;47.446;19.148;2022-07-10T02:20:48;10.73;;;1.70;;
71303;SDS011;59091;47.446;19.148;2022-07-10T02:23:14;4.95;;;1.00;;
71303;SDS011;59091;47.446;19.148;2022-07-10T02:25:39;6.28;;;1.20;;
71303;SDS011;59091;47.446;19.148;2022-07-10T02:28:04;2.53;;;1.00;;
71303;SDS011;59091;47.446;19.148;2022-07-10T02:30:30;8.82;;;1.30;;
71303;SDS011;59091;47.446;19.148;2022-07-10T02:32:55;9.63;;;1.60;;
71303;SDS011;59091;47.446;19.148;2022-07-10T02:35:21;3.33;;;1.20;;
71303;SDS011;59091;47.446;19.148;2022-07-10T02:37:46;3.78;;;1.48;;
71303;SDS011;59091;47.446;19.148;2022-07-10T02:40:12;1.88;;;1.20;;
71303;SDS011;59091;47.446;19.148;2022-07-10T02:42:37;1.48;;;1.38;;
71303;SDS011;59091;47.446;19.148;2022-07-10T02:45:03;1.25;;;1.10;;
71303;SDS011;59091;47.446;19.148;2022-07-10T02:47:29;1.52;;;1.30;;
71303;SDS011;59091;47.446;19.148;2022-07-10T02:49:54;2.33;;;1.30;;
71303;SDS011;59091;47.446;19.148;2022-07-10T02:52:19;1.27;;;1.17;;
71303;SDS011;59091;47.446;19.148;2022-07-10T02:54:45;1.40;;;1.30;;
71303;SDS011;59091;47.446;19.148;2022-07-10T02:57:10;2.47;;;1.30;;
71303;SDS011;59091;47.446;19.148;2022-07-10T02:59:36;1.20;;;1.20;;
71303;SDS011;59091;47.446;19.148;2022-07-10T03:02:01;1.40;;;1.30;;
71303;SDS011;59091;47.446;19.148;2022-07-10T03:04:27;1.20;;;1.20;;
71303;SDS011;59091;47.446;19.148;2022-07-10T03:06:52;1.38;;;1.30;;
71303;SDS011;59091;47.446;19.148;2022-07-10T03:09:18;1.55;;;1.45;;
71303;SDS011;59091;47.446;19.148;2022-07-10T03:11:43;1.40;;;1.30;;
71303;SDS011;59091;47.446;19.148;2022-07-10T03:14:09;1.73;;;1.33;;
71303;SDS011;59091;47.446;19.148;2022-07-10T03:16:34;2.50;;;1.40;;
71303;SDS011;59091;47.446;19.148;2022-07-10T03:19:00;1.30;;;1.20;;
71303;SDS011;59091;47.446;19.148;2022-07-10T03:21:25;1.70;;;1.15;;
71303;SDS011;59091;47.446;19.148;2022-07-10T03:23:50;1.83;;;1.48;;
71303;SDS011;59091;47.446;19.148;2022-07-10T03:26:16;1.75;;;1.50;;
71303;SDS011;59091;47.446;19.148;2022-07-10T03:28:41;1.52;;;1.42;;
71303;SDS011;59091;47.446;19.148;2022-07-10T03:31:07;2.38;;;1.60;;
71303;SDS011;59091;47.446;19.148;2022-07-10T03:33:32;1.15;;;1.10;;
71303;SDS011;59091;47.446;19.148;2022-07-10T03:35:58;1.40;;;1.30;;
71303;SDS011;59091;47.446;19.148;2022-07-10T03:38:26;1.60;;;1.40;;
71303;SDS011;59091;47.446;19.148;2022-07-10T03:40:51;3.72;;;1.65;;
71303;SDS011;59091;47.446;19.148;2022-07-10T03:43:17;2.17;;;1.60;;
71303;SDS011;59091;47.446;19.148;2022-07-10T03:45:42;1.80;;;1.70;;
71303;SDS011;59091;47.446;19.148;2022-07-10T03:48:07;1.70;;;1.60;;
71303;SDS011;59091;47.446;19.148;2022-07-10T03:50:33;1.80;;;1.70;;
71303;SDS011;59091;47.446;19.148;2022-07-10T03:52:59;1.60;;;1.50;;
71303;SDS011;59091;47.446;19.148;2022-07-10T03:55:24;1.42;;;1.40;;
71303;SDS011;59091;47.446;19.148;2022-07-10T03:57:50;1.63;;;1.52;;
71303;SDS011;59091;47.446;19.148;2022-07-10T04:00:18;2.17;;;1.67;;
71303;SDS011;59091;47.446;19.148;2022-07-10T04:02:46;1.85;;;1.75;;
71303;SDS011;59091;47.446;19.148;2022-07-10T04:05:12;1.63;;;1.52;;
71303;SDS011;59091;47.446;19.148;2022-07-10T04:07:38;4.82;;;1.73;;
71303;SDS011;59091;47.446;19.148;2022-07-10T04:10:03;2.00;;;1.80;;
71303;SDS011;59091;47.446;19.148;2022-07-10T04:12:29;1.80;;;1.70;;
71303;SDS011;59091;47.446;19.148;2022-07-10T04:14:54;2.03;;;1.75;;
71303;SDS011;59091;47.446;19.148;2022-07-10T04:17:21;1.92;;;1.70;;
71303;SDS011;59091;47.446;19.148;2022-07-10T04:19:46;3.45;;;1.75;;
71303;SDS011;59091;47.446;19.148;2022-07-10T04:22:12;1.65;;;1.55;;
71303;SDS011;59091;47.446;19.148;2022-07-10T04:24:37;2.80;;;2.00;;
71303;SDS011;59091;47.446;19.148;2022-07-10T04:27:03;2.47;;;1.80;;
71303;SDS011;59091;47.446;19.148;2022-07-10T04:29:29;4.72;;;1.90;;
71303;SDS011;59091;47.446;19.148;2022-07-10T04:31:54;2.33;;;2.13;;
71303;SDS011;59091;47.446;19.148;2022-07-10T04:34:19;1.80;;;1.70;;
71303;SDS011;59091;47.446;19.148;2022-07-10T04:36:45;1.50;;;1.40;;
71303;SDS011;59091;47.446;19.148;2022-07-10T04:39:10;1.90;;;1.70;;
71303;SDS011;59091;47.446;19.148;2022-07-10T04:41:36;2.10;;;1.67;;
71303;SDS011;59091;47.446;19.148;2022-07-10T04:44:01;1.98;;;1.50;;
71303;SDS011;59091;47.446;19.148;2022-07-10T04:46:27;1.67;;;1.58;;
71303;SDS011;59091;47.446;19.148;2022-07-10T04:48:52;4.03;;;1.38;;
71303;SDS011;59091;47.446;19.148;2022-07-10T04:51:18;2.00;;;1.60;;
71303;SDS011;59091;47.446;19.148;2022-07-10T04:53:43;1.63;;;1.52;;
71303;SDS011;59091;47.446;19.148;2022-07-10T04:56:09;1.98;;;1.70;;
71303;SDS011;59091;47.446;19.148;2022-07-10T04:58:34;1.50;;;1.40;;
71303;SDS011;59091;47.446;19.148;2022-07-10T05:01:00;2.63;;;1.58;;
71303;SDS011;59091;47.446;19.148;2022-07-10T05:03:26;1.75;;;1.65;;
71303;SDS011;59091;47.446;19.148;2022-07-10T05:05:53;2.95;;;1.80;;
71303;SDS011;59091;47.446;19.148;2022-07-10T05:08:18;1.88;;;1.60;;
71303;SDS011;59091;47.446;19.148;2022-07-10T05:10:44;1.65;;;1.48;;
71303;SDS011;59091;47.446;19.148;2022-07-10T05:13:10;2.45;;;1.50;;
71303;SDS011;59091;47.446;19.148;2022-07-10T05:15:36;1.83;;;1.52;;
71303;SDS011;59091;47.446;19.148;2022-07-10T05:18:02;1.58;;;1.48;;
71303;SDS011;59091;47.446;19.148;2022-07-10T05:20:27;3.65;;;1.70;;
71303;SDS011;59091;47.446;19.148;2022-07-10T05:22:53;1.50;;;1.40;;
71303;SDS011;59091;47.446;19.148;2022-07-10T05:25:18;4.20;;;1.88;;
71303;SDS011;59091;47.446;19.148;2022-07-10T05:27:44;1.77;;;1.42;;
71303;SDS011;59091;47.446;19.148;2022-07-10T05:30:09;2.08;;;1.65;;
71303;SDS011;59091;47.446;19.148;2022-07-10T05:32:41;2.80;;;1.67;;
71303;SDS011;59091;47.446;19.148;2022-07-10T05:35:10;2.00;;;1.60;;
71303;SDS011;59091;47.446;19.148;2022-07-10T05:37:37;9.85;;;1.50;;
71303;SDS011;59091;47.446;19.148;2022-07-10T05:40:02;2.22;;;1.70;;
71303;SDS011;59091;47.446;19.148;2022-07-10T05:42:28;3.38;;;1.70;;
71303;SDS011;59091;47.446;19.148;2022-07-10T05:44:54;2.20;;;1.83;;
71303;SDS011;59091;47.446;19.148;2022-07-10T05:47:19;3.40;;;1.60;;
71303;SDS011;59091;47.446;19.148;2022-07-10T05:49:44;3.28;;;1.80;;
71303;SDS011;59091;47.446;19.148;2022-07-10T05:52:10;3.75;;;1.63;;
71303;SDS011;59091;47.446;19.148;2022-07-10T05:54:35;1.90;;;1.70;;
71303;SDS011;59091;47.446;19.148;2022-07-10T05:57:01;2.00;;;1.80;;
71303;SDS011;59091;47.446;19.148;2022-07-10T05:59:26;7.03;;;1.90;;
71303;SDS011;59091;47.446;19.148;2022-07-10T06:01:51;2.00;;;1.77;;
71303;SDS011;59091;47.446;19.148;2022-07-10T06:04:17;3.70;;;1.80;;
71303;SDS011;59091;47.446;19.148;2022-07-10T06:06:42;3.55;;;1.65;;
71303;SDS011;59091;47.446;19.148;2022-07-10T06:09:08;2.80;;;1.80;;
71303;SDS011;59091;47.446;19.148;2022-07-10T06:11:33;2.63;;;1.52;;
71303;SDS011;59091;47.446;19.148;2022-07-10T06:13:59;2.30;;;1.90;;
71303;SDS011;59091;47.446;19.148;2022-07-10T06:16:25;2.13;;;1.80;;
71303;SDS011;59091;47.446;19.148;2022-07-10T06:18:50;2.00;;;1.77;;
71303;SDS011;59091;47.446;19.148;2022-07-10T06:21:16;2.03;;;1.85;;
71303;SDS011;59091;47.446;19.148;2022-07-10T06:23:46;1.90;;;1.80;;
71303;SDS011;59091;47.446;19.148;2022-07-10T06:26:12;1.90;;;1.80;;
71303;SDS011;59091;47.446;19.148;2022-07-10T06:28:37;3.22;;;1.60;;
71303;SDS011;59091;47.446;19.148;2022-07-10T06:31:04;1.83;;;1.73;;
71303;SDS011;59091;47.446;19.148;2022-07-10T06:33:30;2.75;;;2.22;;
71303;SDS011;59091;47.446;19.148;2022-07-10T06:35:57;2.00;;;1.80;;
71303;SDS011;59091;47.446;19.148;2022-07-10T06:38:23;2.15;;;2.05;;
71303;SDS011;59091;47.446;19.148;2022-07-10T06:40:48;3.35;;;2.20;;
71303;SDS011;59091;47.446;19.148;2022-07-10T06:43:15;4.82;;;1.90;;
71303;SDS011;59091;47.446;19.148;2022-07-10T06:45:40;2.92;;;1.88;;
71303;SDS011;59091;47.446;19.148;2022-07-10T06:48:06;2.13;;;2.03;;
71303;SDS011;59091;47.446;19.148;2022-07-10T06:50:32;1.88;;;1.60;;
71303;SDS011;59091;47.446;19.148;2022-07-10T06:52:59;2.28;;;1.70;;
71303;SDS011;59091;47.446;19.148;2022-07-10T06:55:25;9.95;;;2.00;;
71303;SDS011;59091;47.446;19.148;2022-07-10T06:57:51;4.47;;;1.80;;
71303;SDS011;59091;47.446;19.148;2022-07-10T07:00:17;4.32;;;2.00;;
71303;SDS011;59091;47.446;19.148;2022-07-10T07:02:42;1.90;;;1.80;;
71303;SDS011;59091;47.446;19.148;2022-07-10T07:05:08;1.70;;;1.60;;
71303;SDS011;59091;47.446;19.148;2022-07-10T07:07:34;1.92;;;1.60;;
71303;SDS011;59091;47.446;19.148;2022-07-10T07:10:00;2.20;;;1.83;;
71303;SDS011;59091;47.446;19.148;2022-07-10T07:12:26;1.80;;;1.70;;
71303;SDS011;59091;47.446;19.148;2022-07-10T07:14:52;2.10;;;2.00;;
71303;SDS011;59091;47.446;19.148;2022-07-10T07:17:17;1.92;;;1.67;;
71303;SDS011;59091;47.446;19.148;2022-07-10T07:19:50;2.17;;;1.77;;
71303;SDS011;59091;47.446;19.148;2022-07-10T07:22:35;1.60;;;1.50;;
71303;SDS011;59091;47.446;19.148;2022-07-10T07:25:19;3.13;;;1.60;;
71303;SDS011;59091;47.446;19.148;2022-07-10T07:27:45;1.83;;;1.50;;
71303;SDS011;59091;47.446;19.148;2022-07-10T07:30:11;1.67;;;1.58;;
71303;SDS011;59091;47.446;19.148;2022-07-10T07:32:40;1.75;;;1.48;;
71303;SDS011;59091;47.446;19.148;2022-07-10T07:35:07;2.85;;;1.75;;
71303;SDS011;59091;47.446;19.148;2022-07-10T07:37:34;1.55;;;1.42;;
71303;SDS011;59091;47.446;19.148;2022-07-10T07:40:01;1.83;;;1.50;;
71303;SDS011;59091;47.446;19.148;2022-07-10T07:42:27;2.30;;;1.40;;
71303;SDS011;59091;47.446;19.148;2022-07-10T07:44:52;1.50;;;1.27;;
71303;SDS011;59091;47.446;19.148;2022-07-10T07:47:17;1.40;;;1.30;;
71303;SDS011;59091;47.446;19.148;2022-07-10T07:49:43;2.50;;;1.20;;
71303;SDS011;59091;47.446;19.148;2022-07-10T07:52:09;1.58;;;1.30;;
71303;SDS011;59091;47.446;19.148;2022-07-10T07:54:34;1.30;;;1.20;;
71303;SDS011;59091;47.446;19.148;2022-07-10T07:57:00;2.10;;;1.20;;
71303;SDS011;59091;47.446;19.148;2022-07-10T07:59:25;1.10;;;1.02;;
71303;SDS011;59091;47.446;19.148;2022-07-10T08:01:51;3.53;;;1.30;;
71303;SDS011;59091;47.446;19.148;2022-07-10T08:04:16;1.08;;;1.02;;
71303;SDS011;59091;47.446;19.148;2022-07-10T08:06:41;1.23;;;1.13;;
71303;SDS011;59091;47.446;19.148;2022-07-10T08:09:07;1.92;;;1.20;;
71303;SDS011;59091;47.446;19.148;2022-07-10T08:11:32;5.70;;;1.45;;
71303;SDS011;59091;47.446;19.148;2022-07-10T08:13:58;1.90;;;1.15;;
71303;SDS011;59091;47.446;19.148;2022-07-10T08:16:23;1.20;;;1.10;;
71303;SDS011;59091;47.446;19.148;2022-07-10T08:18:48;3.03;;;1.33;;
71303;SDS011;59091;47.446;19.148;2022-07-10T08:21:15;1.30;;;1.20;;
71303;SDS011;59091;47.446;19.148;2022-07-10T08:23:40;3.97;;;1.35;;
71303;SDS011;59091;47.446;19.148;2022-07-10T08:26:06;2.70;;;1.20;;
71303;SDS011;59091;47.446;19.148;2022-07-10T08:28:31;1.10;;;1.10;;
71303;SDS011;59091;47.446;19.148;2022-07-10T08:30:57;1.35;;;1.25;;
71303;SDS011;59091;47.446;19.148;2022-07-10T08:33:22;2.35;;;1.20;;
71303;SDS011;59091;47.446;19.148;2022-07-10T08:35:47;1.60;;;1.15;;
71303;SDS011;59091;47.446;19.148;2022-07-10T08:38:13;1.23;;;1.17;;
71303;SDS011;59091;47.446;19.148;2022-07-10T08:40:38;1.40;;;1.30;;
71303;SDS011;59091;47.446;19.148;2022-07-10T08:43:05;1.10;;;1.10;;
71303;SDS011;59091;47.446;19.148;2022-07-10T08:45:32;3.33;;;1.13;;
71303;SDS011;59091;47.446;19.148;2022-07-10T08:48:00;2.55;;;1.10;;
71303;SDS011;59091;47.446;19.148;2022-07-10T08:50:29;2.63;;;1.05;;
71303;SDS011;59091;47.446;19.148;2022-07-10T08:53:15;1.63;;;1.10;;
71303;SDS011;59091;47.446;19.148;2022-07-10T08:55:45;1.30;;;1.20;;
71303;SDS011;59091;47.446;19.148;2022-07-10T08:58:12;1.20;;;1.10;;
71303;SDS011;59091;47.446;19.148;2022-07-10T09:00:38;1.20;;;1.00;;
71303;SDS011;59091;47.446;19.148;2022-07-10T09:03:03;1.20;;;1.10;;
71303;SDS011;59091;47.446;19.148;2022-07-10T09:05:29;1.52;;;1.15;;
71303;SDS011;59091;47.446;19.148;2022-07-10T09:07:54;1.42;;;1.30;;
71303;SDS011;59091;47.446;19.148;2022-07-10T09:10:20;1.42;;;1.33;;
71303;SDS011;59091;47.446;19.148;2022-07-10T09:12:58;1.98;;;1.38;;
71303;SDS011;59091;47.446;19.148;2022-07-10T09:15:27;1.50;;;1.40;;
71303;SDS011;59091;47.446;19.148;2022-07-10T09:20:32;1.27;;;1.00;;
71303;SDS011;59091;47.446;19.148;2022-07-10T09:23:00;1.55;;;1.00;;
71303;SDS011;59091;47.446;19.148;2022-07-10T09:25:41;1.40;;;1.30;;
71303;SDS011;59091;47.446;19.148;2022-07-10T09:28:06;1.33;;;1.15;;
71303;SDS011;59091;47.446;19.148;2022-07-10T09:30:35;1.77;;;1.20;;
71303;SDS011;59091;47.446;19.148;2022-07-10T09:46:36;1.30;;;1.10;;
71303;SDS011;59091;47.446;19.148;2022-07-10T09:49:10;1.05;;;1.05;;
71303;SDS011;59091;47.446;19.148;2022-07-10T09:51:41;2.35;;;1.20;;
71303;SDS011;59091;47.446;19.148;2022-07-10T09:54:08;2.70;;;1.05;;
71303;SDS011;59091;47.446;19.148;2022-07-10T09:56:44;1.23;;;1.05;;
71303;SDS011;59091;47.446;19.148;2022-07-10T09:59:17;1.33;;;1.10;;
71303;SDS011;59091;47.446;19.148;2022-07-10T10:04:11;4.93;;;1.67;;
71303;SDS011;59091;47.446;19.148;2022-07-10T10:06:38;1.60;;;1.15;;
71303;SDS011;59091;47.446;19.148;2022-07-10T10:09:24;1.63;;;1.10;;
71303;SDS011;59091;47.446;19.148;2022-07-10T10:11:56;1.55;;;1.30;;
71303;SDS011;59091;47.446;19.148;2022-07-10T10:14:24;1.10;;;1.10;;
71303;SDS011;59091;47.446;19.148;2022-07-10T10:16:52;2.03;;;1.30;;
71303;SDS011;59091;47.446;19.148;2022-07-10T10:19:20;2.15;;;1.20;;
71303;SDS011;59091;47.446;19.148;2022-07-10T10:22:20;2.38;;;1.50;;
71303;SDS011;59091;47.446;19.148;2022-07-10T10:24:46;2.38;;;1.10;;
71303;SDS011;59091;47.446;19.148;2022-07-10T10:27:13;1.60;;;1.20;;
71303;SDS011;59091;47.446;19.148;2022-07-10T10:29:40;3.03;;;1.30;;
71303;SDS011;59091;47.446;19.148;2022-07-10T10:32:06;4.93;;;1.00;;
71303;SDS011;59091;47.446;19.148;2022-07-10T10:34:37;1.30;;;1.10;;
71303;SDS011;59091;47.446;19.148;2022-07-10T10:39:57;2.05;;;0.90;;
71303;SDS011;59091;47.446;19.148;2022-07-10T10:42:33;4.65;;;1.10;;
71303;SDS011;59091;47.446;19.148;2022-07-10T10:53:21;3.70;;;1.13;;
71303;SDS011;59091;47.446;19.148;2022-07-10T10:58:25;0.88;;;0.88;;
71303;SDS011;59091;47.446;19.148;2022-07-10T11:00:52;3.17;;;0.90;;
71303;SDS011;59091;47.446;19.148;2022-07-10T11:03:27;1.40;;;0.90;;
71303;SDS011;59091;47.446;19.148;2022-07-10T11:05:52;3.47;;;1.10;;
71303;SDS011;59091;47.446;19.148;2022-07-10T11:13:59;2.25;;;1.00;;
71303;SDS011;59091;47.446;19.148;2022-07-10T11:16:25;0.90;;;0.90;;
71303;SDS011;59091;47.446;19.148;2022-07-10T11:18:54;2.78;;;1.30;;
71303;SDS011;59091;47.446;19.148;2022-07-10T11:21:23;0.80;;;0.80;;
71303;SDS011;59091;47.446;19.148;2022-07-10T11:24:03;2.40;;;1.45;;
71303;SDS011;59091;47.446;19.148;2022-07-10T11:26:40;1.40;;;1.25;;
71303;SDS011;59091;47.446;19.148;2022-07-10T11:31:54;3.80;;;1.20;;
71303;SDS011;59091;47.446;19.148;2022-07-10T11:34:21;3.17;;;1.20;;
71303;SDS011;59091;47.446;19.148;2022-07-10T11:36:47;4.47;;;1.20;;
71303;SDS011;59091;47.446;19.148;2022-07-10T11:39:13;2.10;;;1.20;;
71303;SDS011;59091;47.446;19.148;2022-07-10T11:41:42;4.35;;;1.15;;
71303;SDS011;59091;47.446;19.148;2022-07-10T11:44:13;1.45;;;1.05;;
71303;SDS011;59091;47.446;19.148;2022-07-10T11:46:41;2.63;;;1.00;;
71303;SDS011;59091;47.446;19.148;2022-07-10T11:49:09;2.58;;;1.10;;
71303;SDS011;59091;47.446;19.148;2022-07-10T11:51:36;2.78;;;1.08;;
71303;SDS011;59091;47.446;19.148;2022-07-10T11:54:03;4.20;;;1.30;;
71303;SDS011;59091;47.446;19.148;2022-07-10T11:56:30;1.10;;;0.90;;
71303;SDS011;59091;47.446;19.148;2022-07-10T11:59:07;9.52;;;1.30;;
71303;SDS011;59091;47.446;19.148;2022-07-10T12:01:34;3.00;;;0.90;;
71303;SDS011;59091;47.446;19.148;2022-07-10T12:04:05;6.45;;;1.13;;
71303;SDS011;59091;47.446;19.148;2022-07-10T12:06:33;1.63;;;1.10;;
71303;SDS011;59091;47.446;19.148;2022-07-10T12:09:02;9.23;;;1.00;;
71303;SDS011;59091;47.446;19.148;2022-07-10T12:11:28;7.40;;;1.10;;
71303;SDS011;59091;47.446;19.148;2022-07-10T12:13:54;1.80;;;1.05;;
71303;SDS011;59091;47.446;19.148;2022-07-10T12:16:47;9.48;;;1.00;;
71303;SDS011;59091;47.446;19.148;2022-07-10T12:19:14;8.35;;;1.23;;
71303;SDS011;59091;47.446;19.148;2022-07-10T12:21:41;3.33;;;1.20;;
71303;SDS011;59091;47.446;19.148;2022-07-10T12:24:08;3.45;;;0.95;;
71303;SDS011;59091;47.446;19.148;2022-07-10T12:26:38;3.22;;;1.38;;
71303;SDS011;59091;47.446;19.148;2022-07-10T12:29:05;3.22;;;0.90;;
71303;SDS011;59091;47.446;19.148;2022-07-10T12:31:31;0.82;;;0.82;;
71303;SDS011;59091;47.446;19.148;2022-07-10T12:34:02;2.97;;;0.90;;
71303;SDS011;59091;47.446;19.148;2022-07-10T12:39:07;1.50;;;0.80;;
71303;SDS011;59091;47.446;19.148;2022-07-10T12:41:33;1.45;;;0.90;;
71303;SDS011;59091;47.446;19.148;2022-07-10T12:43:58;1.20;;;0.80;;
71303;SDS011;59091;47.446;19.148;2022-07-10T12:46:23;6.35;;;0.80;;
71303;SDS011;59091;47.446;19.148;2022-07-10T12:49:08;2.65;;;0.73;;
71303;SDS011;59091;47.446;19.148;2022-07-10T12:57:02;3.15;;;0.88;;
71303;SDS011;59091;47.446;19.148;2022-07-10T12:59:32;1.45;;;0.90;;
71303;SDS011;59091;47.446;19.148;2022-07-10T13:01:58;1.70;;;0.90;;
71303;SDS011;59091;47.446;19.148;2022-07-10T13:04:24;1.13;;;0.93;;
71303;SDS011;59091;47.446;19.148;2022-07-10T13:06:51;5.15;;;1.08;;
71303;SDS011;59091;47.446;19.148;2022-07-10T13:09:18;7.15;;;1.10;;
71303;SDS011;59091;47.446;19.148;2022-07-10T13:11:48;2.58;;;0.93;;
71303;SDS011;59091;47.446;19.148;2022-07-10T13:14:14;2.38;;;1.10;;
71303;SDS011;59091;47.446;19.148;2022-07-10T13:16:40;1.10;;;0.75;;
71303;SDS011;59091;47.446;19.148;2022-07-10T13:19:06;5.50;;;1.38;;
71303;SDS011;59091;47.446;19.148;2022-07-10T13:21:31;7.28;;;1.20;;
71303;SDS011;59091;47.446;19.148;2022-07-10T13:23:57;11.25;;;1.35;;
71303;SDS011;59091;47.446;19.148;2022-07-10T13:26:22;2.55;;;0.80;;
71303;SDS011;59091;47.446;19.148;2022-07-10T13:28:48;0.90;;;0.90;;
71303;SDS011;59091;47.446;19.148;2022-07-10T13:31:13;2.60;;;0.90;;
71303;SDS011;59091;47.446;19.148;2022-07-10T13:33:39;3.88;;;0.95;;
71303;SDS011;59091;47.446;19.148;2022-07-10T13:36:04;1.00;;;1.00;;
71303;SDS011;59091;47.446;19.148;2022-07-10T13:38:30;0.90;;;0.88;;
71303;SDS011;59091;47.446;19.148;2022-07-10T13:40:56;0.95;;;0.80;;
71303;SDS011;59091;47.446;19.148;2022-07-10T13:43:22;1.95;;;1.13;;
71303;SDS011;59091;47.446;19.148;2022-07-10T13:45:53;1.95;;;0.90;;
71303;SDS011;59091;47.446;19.148;2022-07-10T13:48:21;3.90;;;1.20;;
71303;SDS011;59091;47.446;19.148;2022-07-10T13:50:46;1.08;;;1.00;;
71303;SDS011;59091;47.446;19.148;2022-07-10T13:53:12;3.13;;;1.00;;
71303;SDS011;59091;47.446;19.148;2022-07-10T13:55:38;1.73;;;1.10;;
71303;SDS011;59091;47.446;19.148;2022-07-10T13:58:04;4.45;;;1.17;;
71303;SDS011;59091;47.446;19.148;2022-07-10T14:00:29;4.18;;;0.80;;
71303;SDS011;59091;47.446;19.148;2022-07-10T14:02:55;4.13;;;1.20;;
71303;SDS011;59091;47.446;19.148;2022-07-10T14:05:22;1.88;;;0.90;;
71303;SDS011;59091;47.446;19.148;2022-07-10T14:07:48;5.30;;;0.98;;
71303;SDS011;59091;47.446;19.148;2022-07-10T14:10:14;1.52;;;1.00;;
71303;SDS011;59091;47.446;19.148;2022-07-10T14:12:40;1.38;;;1.10;;
71303;SDS011;59091;47.446;19.148;2022-07-10T14:15:06;2.10;;;0.90;;
71303;SDS011;59091;47.446;19.148;2022-07-10T14:17:32;5.55;;;1.27;;
71303;SDS011;59091;47.446;19.148;2022-07-10T14:19:58;2.83;;;1.23;;
71303;SDS011;59091;47.446;19.148;2022-07-10T14:22:23;2.22;;;1.00;;
71303;SDS011;59091;47.446;19.148;2022-07-10T14:24:49;2.08;;;1.00;;
71303;SDS011;59091;47.446;19.148;2022-07-10T14:27:16;5.40;;;1.10;;
71303;SDS011;59091;47.446;19.148;2022-07-10T14:29:42;13.20;;;2.42;;
71303;SDS011;59091;47.446;19.148;2022-07-10T14:32:07;4.32;;;1.05;;
71303;SDS011;59091;47.446;19.148;2022-07-10T14:34:33;7.38;;;1.48;;
71303;SDS011;59091;47.446;19.148;2022-07-10T14:36:58;4.50;;;1.05;;
71303;SDS011;59091;47.446;19.148;2022-07-10T14:39:24;6.78;;;0.95;;
71303;SDS011;59091;47.446;19.148;2022-07-10T14:41:49;3.45;;;1.05;;
71303;SDS011;59091;47.446;19.148;2022-07-10T14:44:14;7.85;;;1.52;;
71303;SDS011;59091;47.446;19.148;2022-07-10T14:46:40;2.60;;;1.38;;
71303;SDS011;59091;47.446;19.148;2022-07-10T14:49:05;3.55;;;1.05;;
71303;SDS011;59091;47.446;19.148;2022-07-10T14:51:31;6.40;;;1.10;;
71303;SDS011;59091;47.446;19.148;2022-07-10T14:53:56;9.07;;;1.40;;
71303;SDS011;59091;47.446;19.148;2022-07-10T14:56:22;5.18;;;1.15;;
71303;SDS011;59091;47.446;19.148;2022-07-10T14:58:48;3.90;;;0.90;;
71303;SDS011;59091;47.446;19.148;2022-07-10T15:01:14;5.28;;;1.45;;
71303;SDS011;59091;47.446;19.148;2022-07-10T15:03:41;1.08;;;1.00;;
71303;SDS011;59091;47.446;19.148;2022-07-10T15:06:06;1.65;;;0.77;;
71303;SDS011;59091;47.446;19.148;2022-07-10T15:08:32;6.43;;;0.93;;
71303;SDS011;59091;47.446;19.148;2022-07-10T15:10:57;6.25;;;0.93;;
71303;SDS011;59091;47.446;19.148;2022-07-10T15:13:28;0.70;;;0.70;;
71303;SDS011;59091;47.446;19.148;2022-07-10T15:15:54;2.55;;;0.77;;
71303;SDS011;59091;47.446;19.148;2022-07-10T15:18:19;4.32;;;0.98;;
71303;SDS011;59091;47.446;19.148;2022-07-10T15:20:45;6.40;;;0.73;;